sensor_id;sensor_type;location;lat;lon;timestamp;temperature;humidity
439;DHT22;206;48.782;9.252;2023-03-31T00:02:01;13.70;36.40
439;DHT22;206;48.782;9.252;2023-03-31T00:04:31;13.60;37.00
439;DHT22;206;48.782;9.252;2023-03-31T00:06:58;13.60;37.00
439;DHT22;206;48.782;9.252;2023-03-31T00:09:23;13.60;37.00
439;DHT22;206;48.782;9.252;2023-03-31T00:11:50;13.50;37.70
439;DHT22;206;48.782;9.252;2023-03-31T00:14:17;13.50;38.80
439;DHT22;206;48.782;9.252;2023-03-31T00:16:43;13.40;40.50
439;DHT22;206;48.782;9.252;2023-03-31T00:19:10;13.30;40.90
439;DHT22;206;48.782;9.252;2023-03-31T00:21:43;13.20;41.70
439;DHT22;206;48.782;9.252;2023-03-31T00:24:10;13.10;42.20
439;DHT22;206;48.782;9.252;2023-03-31T00:26:36;13.10;42.60
439;DHT22;206;48.782;9.252;2023-03-31T00:29:03;13.00;43.00
439;DHT22;206;48.782;9.252;2023-03-31T00:31:29;13.00;43.10
439;DHT22;206;48.782;9.252;2023-03-31T00:33:55;12.90;42.90
439;DHT22;206;48.782;9.252;2023-03-31T00:36:22;12.90;42.80
439;DHT22;206;48.782;9.252;2023-03-31T00:39:00;12.90;42.60
439;DHT22;206;48.782;9.252;2023-03-31T00:41:34;12.90;42.30
439;DHT22;206;48.782;9.252;2023-03-31T00:44:14;12.90;41.80
439;DHT22;206;48.782;9.252;2023-03-31T00:46:55;12.90;41.40
439;DHT22;206;48.782;9.252;2023-03-31T00:54:33;12.90;41.90
439;DHT22;206;48.782;9.252;2023-03-31T00:57:00;12.90;41.70
439;DHT22;206;48.782;9.252;2023-03-31T00:59:29;13.00;42.00
439;DHT22;206;48.782;9.252;2023-03-31T01:01:57;13.00;42.20
439;DHT22;206;48.782;9.252;2023-03-31T01:04:28;13.00;41.60
439;DHT22;206;48.782;9.252;2023-03-31T01:07:06;13.00;41.50
439;DHT22;206;48.782;9.252;2023-03-31T01:09:34;13.00;41.50
439;DHT22;206;48.782;9.252;2023-03-31T01:12:02;13.00;41.50
439;DHT22;206;48.782;9.252;2023-03-31T01:14:30;13.00;41.40
439;DHT22;206;48.782;9.252;2023-03-31T01:16:56;13.00;41.50
439;DHT22;206;48.782;9.252;2023-03-31T01:53:17;13.30;40.50
439;DHT22;206;48.782;9.252;2023-03-31T01:58:22;13.30;40.00
439;DHT22;206;48.782;9.252;2023-03-31T02:01:01;13.20;40.70
439;DHT22;206;48.782;9.252;2023-03-31T02:03:34;13.20;40.50
439;DHT22;206;48.782;9.252;2023-03-31T02:06:09;13.20;39.80
439;DHT22;206;48.782;9.252;2023-03-31T02:08:53;13.30;39.40
439;DHT22;206;48.782;9.252;2023-03-31T02:11:21;13.30;36.80
439;DHT22;206;48.782;9.252;2023-03-31T02:13:48;13.40;36.80
439;DHT22;206;48.782;9.252;2023-03-31T02:16:21;13.40;36.80
439;DHT22;206;48.782;9.252;2023-03-31T02:18:49;13.50;37.00
439;DHT22;206;48.782;9.252;2023-03-31T02:21:17;13.50;36.90
439;DHT22;206;48.782;9.252;2023-03-31T02:23:44;13.60;36.90
439;DHT22;206;48.782;9.252;2023-03-31T02:26:23;13.60;37.00
439;DHT22;206;48.782;9.252;2023-03-31T02:28:50;13.70;37.10
439;DHT22;206;48.782;9.252;2023-03-31T02:34:03;13.70;39.00
439;DHT22;206;48.782;9.252;2023-03-31T02:36:29;13.70;39.40
439;DHT22;206;48.782;9.252;2023-03-31T02:39:02;13.60;40.10
439;DHT22;206;48.782;9.252;2023-03-31T02:41:29;13.60;39.80
439;DHT22;206;48.782;9.252;2023-03-31T02:43:55;13.60;40.20
439;DHT22;206;48.782;9.252;2023-03-31T02:46:21;13.60;40.80
439;DHT22;206;48.782;9.252;2023-03-31T02:48:52;13.60;39.90
439;DHT22;206;48.782;9.252;2023-03-31T02:54:52;13.60;40.40
439;DHT22;206;48.782;9.252;2023-03-31T03:00:20;13.50;40.90
439;DHT22;206;48.782;9.252;2023-03-31T03:06:10;13.50;41.10
439;DHT22;206;48.782;9.252;2023-03-31T03:09:16;13.50;41.90
439;DHT22;206;48.782;9.252;2023-03-31T03:14:56;13.50;42.50
439;DHT22;206;48.782;9.252;2023-03-31T03:17:25;13.50;42.40
439;DHT22;206;48.782;9.252;2023-03-31T03:19:59;13.50;42.20
439;DHT22;206;48.782;9.252;2023-03-31T03:22:25;13.50;42.40
439;DHT22;206;48.782;9.252;2023-03-31T03:24:51;13.50;42.70
439;DHT22;206;48.782;9.252;2023-03-31T03:27:18;13.50;42.70
439;DHT22;206;48.782;9.252;2023-03-31T03:29:46;13.50;43.00
439;DHT22;206;48.782;9.252;2023-03-31T03:32:12;13.50;43.30
439;DHT22;206;48.782;9.252;2023-03-31T03:34:38;13.40;43.60
439;DHT22;206;48.782;9.252;2023-03-31T03:37:04;13.40;44.10
439;DHT22;206;48.782;9.252;2023-03-31T03:39:30;13.30;44.20
439;DHT22;206;48.782;9.252;2023-03-31T03:41:56;13.30;44.30
439;DHT22;206;48.782;9.252;2023-03-31T03:44:21;13.30;44.90
439;DHT22;206;48.782;9.252;2023-03-31T03:46:47;13.20;44.60
439;DHT22;206;48.782;9.252;2023-03-31T03:49:13;13.20;45.20
439;DHT22;206;48.782;9.252;2023-03-31T03:51:38;13.20;45.60
439;DHT22;206;48.782;9.252;2023-03-31T03:54:04;13.20;45.70
439;DHT22;206;48.782;9.252;2023-03-31T03:56:29;13.10;45.20
439;DHT22;206;48.782;9.252;2023-03-31T03:58:55;13.10;45.80
439;DHT22;206;48.782;9.252;2023-03-31T04:01:22;13.20;45.80
439;DHT22;206;48.782;9.252;2023-03-31T04:03:47;13.10;45.20
439;DHT22;206;48.782;9.252;2023-03-31T04:06:13;13.10;45.70
439;DHT22;206;48.782;9.252;2023-03-31T04:08:39;13.10;45.60
439;DHT22;206;48.782;9.252;2023-03-31T04:11:15;13.10;46.50
439;DHT22;206;48.782;9.252;2023-03-31T04:13:42;13.00;46.40
439;DHT22;206;48.782;9.252;2023-03-31T04:16:08;12.80;46.80
439;DHT22;206;48.782;9.252;2023-03-31T04:18:33;12.70;47.70
439;DHT22;206;48.782;9.252;2023-03-31T04:21:01;12.60;48.30
439;DHT22;206;48.782;9.252;2023-03-31T04:23:34;12.50;49.00
439;DHT22;206;48.782;9.252;2023-03-31T04:26:03;12.40;49.90
439;DHT22;206;48.782;9.252;2023-03-31T04:28:33;12.30;51.30
439;DHT22;206;48.782;9.252;2023-03-31T04:30:59;12.30;51.10
439;DHT22;206;48.782;9.252;2023-03-31T04:33:25;12.20;52.20
439;DHT22;206;48.782;9.252;2023-03-31T04:35:51;12.20;52.50
439;DHT22;206;48.782;9.252;2023-03-31T04:38:20;12.20;52.60
439;DHT22;206;48.782;9.252;2023-03-31T04:40:47;12.30;52.70
439;DHT22;206;48.782;9.252;2023-03-31T04:43:14;12.30;52.60
439;DHT22;206;48.782;9.252;2023-03-31T04:45:40;12.40;52.70
439;DHT22;206;48.782;9.252;2023-03-31T04:48:06;12.40;52.50
439;DHT22;206;48.782;9.252;2023-03-31T04:50:32;12.50;52.40
439;DHT22;206;48.782;9.252;2023-03-31T04:52:58;12.50;51.90
439;DHT22;206;48.782;9.252;2023-03-31T04:55:23;12.50;51.90
439;DHT22;206;48.782;9.252;2023-03-31T04:57:49;12.60;52.00
439;DHT22;206;48.782;9.252;2023-03-31T05:00:16;12.60;51.60
439;DHT22;206;48.782;9.252;2023-03-31T05:02:42;12.70;51.00
439;DHT22;206;48.782;9.252;2023-03-31T05:05:08;12.70;50.80
439;DHT22;206;48.782;9.252;2023-03-31T05:07:34;12.70;50.10
439;DHT22;206;48.782;9.252;2023-03-31T05:10:00;12.70;49.30
439;DHT22;206;48.782;9.252;2023-03-31T05:12:26;12.70;49.40
439;DHT22;206;48.782;9.252;2023-03-31T05:14:51;12.70;49.60
439;DHT22;206;48.782;9.252;2023-03-31T05:17:17;12.70;49.80
439;DHT22;206;48.782;9.252;2023-03-31T05:19:43;12.70;51.60
439;DHT22;206;48.782;9.252;2023-03-31T05:22:09;12.80;52.20
439;DHT22;206;48.782;9.252;2023-03-31T05:24:35;12.80;52.10
439;DHT22;206;48.782;9.252;2023-03-31T05:27:01;12.80;53.10
439;DHT22;206;48.782;9.252;2023-03-31T05:29:26;12.80;54.80
439;DHT22;206;48.782;9.252;2023-03-31T05:31:52;12.80;54.30
439;DHT22;206;48.782;9.252;2023-03-31T05:34:18;12.80;55.40
439;DHT22;206;48.782;9.252;2023-03-31T05:36:45;12.90;55.90
439;DHT22;206;48.782;9.252;2023-03-31T05:39:12;12.80;55.80
439;DHT22;206;48.782;9.252;2023-03-31T05:41:38;12.80;55.80
439;DHT22;206;48.782;9.252;2023-03-31T05:44:08;12.80;57.20
439;DHT22;206;48.782;9.252;2023-03-31T05:46:34;12.80;58.20
439;DHT22;206;48.782;9.252;2023-03-31T05:49:00;12.80;59.40
439;DHT22;206;48.782;9.252;2023-03-31T05:51:25;12.80;60.50
439;DHT22;206;48.782;9.252;2023-03-31T05:53:51;12.80;60.50
439;DHT22;206;48.782;9.252;2023-03-31T05:56:16;12.70;62.20
439;DHT22;206;48.782;9.252;2023-03-31T05:58:42;12.70;62.90
439;DHT22;206;48.782;9.252;2023-03-31T06:01:13;12.60;65.40
439;DHT22;206;48.782;9.252;2023-03-31T06:03:44;12.50;66.50
439;DHT22;206;48.782;9.252;2023-03-31T06:06:11;12.50;66.70
439;DHT22;206;48.782;9.252;2023-03-31T06:08:37;12.50;67.10
439;DHT22;206;48.782;9.252;2023-03-31T06:11:08;12.50;66.00
439;DHT22;206;48.782;9.252;2023-03-31T06:13:35;12.50;65.30
439;DHT22;206;48.782;9.252;2023-03-31T06:16:01;12.50;65.20
439;DHT22;206;48.782;9.252;2023-03-31T06:18:28;12.60;65.40
439;DHT22;206;48.782;9.252;2023-03-31T06:20:55;12.60;66.30
439;DHT22;206;48.782;9.252;2023-03-31T06:23:21;12.60;66.40
439;DHT22;206;48.782;9.252;2023-03-31T06:25:47;12.60;67.00
439;DHT22;206;48.782;9.252;2023-03-31T06:28:12;12.60;66.70
439;DHT22;206;48.782;9.252;2023-03-31T06:30:38;12.70;67.40
439;DHT22;206;48.782;9.252;2023-03-31T06:33:04;12.70;67.80
439;DHT22;206;48.782;9.252;2023-03-31T06:35:29;12.70;67.80
439;DHT22;206;48.782;9.252;2023-03-31T06:37:55;12.70;67.40
439;DHT22;206;48.782;9.252;2023-03-31T06:40:22;12.70;68.00
439;DHT22;206;48.782;9.252;2023-03-31T06:42:47;12.70;69.00
439;DHT22;206;48.782;9.252;2023-03-31T06:45:13;12.70;69.10
439;DHT22;206;48.782;9.252;2023-03-31T06:47:38;12.70;68.80
439;DHT22;206;48.782;9.252;2023-03-31T06:50:07;12.60;68.50
439;DHT22;206;48.782;9.252;2023-03-31T06:52:34;12.60;69.60
439;DHT22;206;48.782;9.252;2023-03-31T06:55:00;12.50;69.70
439;DHT22;206;48.782;9.252;2023-03-31T06:57:27;12.50;70.50
439;DHT22;206;48.782;9.252;2023-03-31T06:59:53;12.50;71.70
439;DHT22;206;48.782;9.252;2023-03-31T07:02:18;12.40;71.80
439;DHT22;206;48.782;9.252;2023-03-31T07:04:44;12.30;72.50
439;DHT22;206;48.782;9.252;2023-03-31T07:07:10;12.30;73.50
439;DHT22;206;48.782;9.252;2023-03-31T07:09:35;12.30;75.00
439;DHT22;206;48.782;9.252;2023-03-31T07:12:01;12.20;76.60
439;DHT22;206;48.782;9.252;2023-03-31T07:14:30;12.20;78.00
439;DHT22;206;48.782;9.252;2023-03-31T07:16:56;12.10;77.40
439;DHT22;206;48.782;9.252;2023-03-31T07:19:22;12.00;77.70
439;DHT22;206;48.782;9.252;2023-03-31T07:21:48;12.10;79.20
439;DHT22;206;48.782;9.252;2023-03-31T07:24:13;12.00;78.30
439;DHT22;206;48.782;9.252;2023-03-31T07:26:39;12.00;76.00
439;DHT22;206;48.782;9.252;2023-03-31T07:29:05;12.00;76.10
439;DHT22;206;48.782;9.252;2023-03-31T07:31:31;12.10;74.40
439;DHT22;206;48.782;9.252;2023-03-31T07:33:56;12.20;71.30
439;DHT22;206;48.782;9.252;2023-03-31T07:36:22;12.30;67.60
439;DHT22;206;48.782;9.252;2023-03-31T07:38:48;12.40;65.80
439;DHT22;206;48.782;9.252;2023-03-31T07:41:16;12.50;64.90
439;DHT22;206;48.782;9.252;2023-03-31T07:43:43;12.60;63.10
439;DHT22;206;48.782;9.252;2023-03-31T07:46:18;12.80;61.50
439;DHT22;206;48.782;9.252;2023-03-31T07:48:44;13.20;58.00
439;DHT22;206;48.782;9.252;2023-03-31T07:51:12;13.60;55.10
439;DHT22;206;48.782;9.252;2023-03-31T07:53:38;13.70;52.80
439;DHT22;206;48.782;9.252;2023-03-31T07:56:03;13.80;52.10
439;DHT22;206;48.782;9.252;2023-03-31T07:58:29;13.80;51.10
439;DHT22;206;48.782;9.252;2023-03-31T08:00:55;13.90;49.30
439;DHT22;206;48.782;9.252;2023-03-31T08:03:20;13.90;47.20
439;DHT22;206;48.782;9.252;2023-03-31T08:05:46;14.00;46.20
439;DHT22;206;48.782;9.252;2023-03-31T08:08:12;14.00;46.70
439;DHT22;206;48.782;9.252;2023-03-31T08:10:37;14.00;45.90
439;DHT22;206;48.782;9.252;2023-03-31T08:13:03;14.00;45.70
439;DHT22;206;48.782;9.252;2023-03-31T08:15:28;14.00;46.20
439;DHT22;206;48.782;9.252;2023-03-31T08:17:54;14.20;45.30
439;DHT22;206;48.782;9.252;2023-03-31T08:20:19;14.50;44.40
439;DHT22;206;48.782;9.252;2023-03-31T08:22:45;14.70;42.70
439;DHT22;206;48.782;9.252;2023-03-31T08:25:11;15.00;42.40
439;DHT22;206;48.782;9.252;2023-03-31T08:27:38;15.20;41.10
439;DHT22;206;48.782;9.252;2023-03-31T08:30:09;15.40;42.20
439;DHT22;206;48.782;9.252;2023-03-31T08:32:36;15.60;39.00
439;DHT22;206;48.782;9.252;2023-03-31T08:35:02;15.70;38.90
439;DHT22;206;48.782;9.252;2023-03-31T08:37:28;15.80;39.00
439;DHT22;206;48.782;9.252;2023-03-31T08:39:54;16.00;39.10
439;DHT22;206;48.782;9.252;2023-03-31T08:42:39;16.10;38.00
439;DHT22;206;48.782;9.252;2023-03-31T08:47:54;16.30;36.40
439;DHT22;206;48.782;9.252;2023-03-31T08:50:23;16.40;37.00
439;DHT22;206;48.782;9.252;2023-03-31T08:53:05;16.50;37.60
439;DHT22;206;48.782;9.252;2023-03-31T08:55:51;16.50;36.90
439;DHT22;206;48.782;9.252;2023-03-31T08:58:39;16.50;36.60
439;DHT22;206;48.782;9.252;2023-03-31T09:09:58;16.60;37.30
439;DHT22;206;48.782;9.252;2023-03-31T09:15:14;16.50;32.30
439;DHT22;206;48.782;9.252;2023-03-31T09:17:48;16.60;34.60
439;DHT22;206;48.782;9.252;2023-03-31T09:20:29;16.70;32.30
439;DHT22;206;48.782;9.252;2023-03-31T09:23:01;16.70;29.70
439;DHT22;206;48.782;9.252;2023-03-31T09:25:33;16.60;29.60
439;DHT22;206;48.782;9.252;2023-03-31T09:28:02;16.50;28.60
439;DHT22;206;48.782;9.252;2023-03-31T09:30:32;16.60;29.70
439;DHT22;206;48.782;9.252;2023-03-31T09:33:26;16.70;28.50
439;DHT22;206;48.782;9.252;2023-03-31T09:35:59;16.90;28.80
439;DHT22;206;48.782;9.252;2023-03-31T09:38:26;17.20;26.70
439;DHT22;206;48.782;9.252;2023-03-31T09:40:55;17.00;25.90
439;DHT22;206;48.782;9.252;2023-03-31T09:43:27;17.00;25.30
439;DHT22;206;48.782;9.252;2023-03-31T09:45:54;16.90;25.20
439;DHT22;206;48.782;9.252;2023-03-31T09:48:22;16.80;25.70
439;DHT22;206;48.782;9.252;2023-03-31T09:50:57;16.80;26.60
439;DHT22;206;48.782;9.252;2023-03-31T09:59:22;16.50;27.70
439;DHT22;206;48.782;9.252;2023-03-31T10:01:56;16.40;26.40
439;DHT22;206;48.782;9.252;2023-03-31T10:04:26;16.50;25.30
439;DHT22;206;48.782;9.252;2023-03-31T10:06:53;16.60;24.70
439;DHT22;206;48.782;9.252;2023-03-31T10:09:20;16.60;24.60
439;DHT22;206;48.782;9.252;2023-03-31T10:11:57;16.60;24.90
439;DHT22;206;48.782;9.252;2023-03-31T10:14:26;16.60;23.30
439;DHT22;206;48.782;9.252;2023-03-31T10:16:56;16.60;23.20
439;DHT22;206;48.782;9.252;2023-03-31T10:19:26;16.60;22.20
439;DHT22;206;48.782;9.252;2023-03-31T10:22:13;16.60;22.80
439;DHT22;206;48.782;9.252;2023-03-31T10:24:42;16.60;22.80
439;DHT22;206;48.782;9.252;2023-03-31T10:29:43;16.70;21.80
439;DHT22;206;48.782;9.252;2023-03-31T10:32:25;16.80;21.70
439;DHT22;206;48.782;9.252;2023-03-31T10:34:54;16.90;21.60
439;DHT22;206;48.782;9.252;2023-03-31T10:37:23;17.00;21.80
439;DHT22;206;48.782;9.252;2023-03-31T10:40:23;17.20;21.60
439;DHT22;206;48.782;9.252;2023-03-31T10:43:07;17.40;20.30
439;DHT22;206;48.782;9.252;2023-03-31T10:45:58;17.60;20.30
439;DHT22;206;48.782;9.252;2023-03-31T10:50:51;17.60;18.40
439;DHT22;206;48.782;9.252;2023-03-31T10:53:17;17.40;18.70
439;DHT22;206;48.782;9.252;2023-03-31T11:01:56;17.40;18.80
439;DHT22;206;48.782;9.252;2023-03-31T11:07:39;17.70;16.80
439;DHT22;206;48.782;9.252;2023-03-31T11:10:28;17.70;16.40
439;DHT22;206;48.782;9.252;2023-03-31T11:42:24;12.80;39.70
439;DHT22;206;48.782;9.252;2023-03-31T11:44:57;12.70;43.20
439;DHT22;206;48.782;9.252;2023-03-31T11:47:31;12.80;45.80
439;DHT22;206;48.782;9.252;2023-03-31T11:50:01;12.90;43.80
439;DHT22;206;48.782;9.252;2023-03-31T11:52:33;12.90;43.60
439;DHT22;206;48.782;9.252;2023-03-31T12:00:15;13.00;39.40
439;DHT22;206;48.782;9.252;2023-03-31T12:03:10;13.00;40.10
439;DHT22;206;48.782;9.252;2023-03-31T12:05:45;13.10;40.00
439;DHT22;206;48.782;9.252;2023-03-31T12:10:51;13.60;38.00
439;DHT22;206;48.782;9.252;2023-03-31T12:16:16;14.30;35.30
439;DHT22;206;48.782;9.252;2023-03-31T12:19:07;14.90;35.60
439;DHT22;206;48.782;9.252;2023-03-31T12:21:37;15.30;33.60
439;DHT22;206;48.782;9.252;2023-03-31T12:24:05;15.60;32.40
439;DHT22;206;48.782;9.252;2023-03-31T12:26:53;15.70;30.30
439;DHT22;206;48.782;9.252;2023-03-31T12:30:15;15.60;29.00
439;DHT22;206;48.782;9.252;2023-03-31T12:32:17;15.60;29.00
439;DHT22;206;48.782;9.252;2023-03-31T12:34:52;15.80;29.00
439;DHT22;206;48.782;9.252;2023-03-31T12:40:08;16.20;28.70
439;DHT22;206;48.782;9.252;2023-03-31T12:56:00;16.50;23.20
439;DHT22;206;48.782;9.252;2023-03-31T13:01:11;16.40;23.80
439;DHT22;206;48.782;9.252;2023-03-31T13:09:00;16.60;23.30
439;DHT22;206;48.782;9.252;2023-03-31T13:14:12;16.60;22.70
439;DHT22;206;48.782;9.252;2023-03-31T13:16:38;16.40;23.00
439;DHT22;206;48.782;9.252;2023-03-31T13:19:04;16.40;22.40
439;DHT22;206;48.782;9.252;2023-03-31T13:21:30;16.40;23.50
439;DHT22;206;48.782;9.252;2023-03-31T13:24:00;16.30;24.80
439;DHT22;206;48.782;9.252;2023-03-31T13:34:29;15.50;28.60
439;DHT22;206;48.782;9.252;2023-03-31T13:37:03;15.20;28.70
439;DHT22;206;48.782;9.252;2023-03-31T13:59:46;14.00;35.20
439;DHT22;206;48.782;9.252;2023-03-31T14:02:31;14.00;34.60
439;DHT22;206;48.782;9.252;2023-03-31T14:05:30;14.00;34.20
439;DHT22;206;48.782;9.252;2023-03-31T14:08:19;13.80;33.80
439;DHT22;206;48.782;9.252;2023-03-31T14:10:48;13.70;32.80
439;DHT22;206;48.782;9.252;2023-03-31T14:13:16;13.60;34.70
439;DHT22;206;48.782;9.252;2023-03-31T14:15:49;13.50;36.40
439;DHT22;206;48.782;9.252;2023-03-31T14:18:28;13.60;35.30
439;DHT22;206;48.782;9.252;2023-03-31T14:32:49;15.60;28.20
439;DHT22;206;48.782;9.252;2023-03-31T14:35:37;15.90;28.20
439;DHT22;206;48.782;9.252;2023-03-31T14:38:19;16.20;28.40
439;DHT22;206;48.782;9.252;2023-03-31T14:40:52;16.20;26.30
439;DHT22;206;48.782;9.252;2023-03-31T14:43:22;16.20;26.00
439;DHT22;206;48.782;9.252;2023-03-31T14:45:59;16.10;25.80
439;DHT22;206;48.782;9.252;2023-03-31T14:48:31;16.10;26.00
439;DHT22;206;48.782;9.252;2023-03-31T14:51:00;16.00;26.20
439;DHT22;206;48.782;9.252;2023-03-31T14:53:26;16.20;25.90
439;DHT22;206;48.782;9.252;2023-03-31T14:56:06;16.10;26.70
439;DHT22;206;48.782;9.252;2023-03-31T14:58:35;16.10;25.90
439;DHT22;206;48.782;9.252;2023-03-31T15:01:03;16.30;25.80
439;DHT22;206;48.782;9.252;2023-03-31T15:03:35;16.30;25.40
439;DHT22;206;48.782;9.252;2023-03-31T15:06:04;16.30;26.50
439;DHT22;206;48.782;9.252;2023-03-31T15:08:30;16.30;26.20
439;DHT22;206;48.782;9.252;2023-03-31T15:11:04;16.30;25.90
439;DHT22;206;48.782;9.252;2023-03-31T15:18:45;16.20;27.00
439;DHT22;206;48.782;9.252;2023-03-31T15:21:35;16.20;26.10
439;DHT22;206;48.782;9.252;2023-03-31T15:24:03;16.20;26.40
439;DHT22;206;48.782;9.252;2023-03-31T15:26:32;16.00;26.70
439;DHT22;206;48.782;9.252;2023-03-31T15:29:30;15.80;27.70
439;DHT22;206;48.782;9.252;2023-03-31T15:31:55;15.70;27.60
439;DHT22;206;48.782;9.252;2023-03-31T15:34:30;15.70;27.50
439;DHT22;206;48.782;9.252;2023-03-31T15:36:58;15.70;27.00
439;DHT22;206;48.782;9.252;2023-03-31T15:39:26;15.60;26.60
439;DHT22;206;48.782;9.252;2023-03-31T15:41:53;15.50;26.70
439;DHT22;206;48.782;9.252;2023-03-31T15:47:07;15.50;27.30
439;DHT22;206;48.782;9.252;2023-03-31T15:49:36;15.50;27.00
439;DHT22;206;48.782;9.252;2023-03-31T15:52:01;15.60;26.50
439;DHT22;206;48.782;9.252;2023-03-31T15:54:36;15.60;27.30
439;DHT22;206;48.782;9.252;2023-03-31T15:57:06;15.60;27.10
439;DHT22;206;48.782;9.252;2023-03-31T15:59:44;15.70;27.40
439;DHT22;206;48.782;9.252;2023-03-31T16:02:12;15.60;28.00
439;DHT22;206;48.782;9.252;2023-03-31T16:04:39;15.60;28.00
439;DHT22;206;48.782;9.252;2023-03-31T16:07:07;15.50;28.30
439;DHT22;206;48.782;9.252;2023-03-31T16:09:53;15.40;28.90
439;DHT22;206;48.782;9.252;2023-03-31T16:12:36;15.40;28.80
439;DHT22;206;48.782;9.252;2023-03-31T16:15:08;15.40;28.90
439;DHT22;206;48.782;9.252;2023-03-31T16:20:15;15.30;28.80
439;DHT22;206;48.782;9.252;2023-03-31T16:22:44;15.20;29.40
439;DHT22;206;48.782;9.252;2023-03-31T16:25:15;15.10;29.30
439;DHT22;206;48.782;9.252;2023-03-31T16:27:44;15.10;29.50
439;DHT22;206;48.782;9.252;2023-03-31T16:30:20;15.10;29.70
439;DHT22;206;48.782;9.252;2023-03-31T16:32:59;15.00;29.30
439;DHT22;206;48.782;9.252;2023-03-31T16:35:30;15.00;30.00
439;DHT22;206;48.782;9.252;2023-03-31T16:37:56;15.00;29.40
439;DHT22;206;48.782;9.252;2023-03-31T16:40:22;14.90;28.50
439;DHT22;206;48.782;9.252;2023-03-31T16:42:48;14.80;29.50
439;DHT22;206;48.782;9.252;2023-03-31T16:45:13;14.60;29.00
439;DHT22;206;48.782;9.252;2023-03-31T16:47:39;14.50;29.70
439;DHT22;206;48.782;9.252;2023-03-31T16:50:05;14.30;29.20
439;DHT22;206;48.782;9.252;2023-03-31T16:52:31;14.20;29.00
439;DHT22;206;48.782;9.252;2023-03-31T16:54:57;14.00;28.90
439;DHT22;206;48.782;9.252;2023-03-31T16:57:22;13.90;28.20
439;DHT22;206;48.782;9.252;2023-03-31T16:59:48;13.90;28.80
439;DHT22;206;48.782;9.252;2023-03-31T17:02:14;13.80;27.70
439;DHT22;206;48.782;9.252;2023-03-31T17:04:40;13.70;28.40
439;DHT22;206;48.782;9.252;2023-03-31T17:07:05;13.60;28.60
439;DHT22;206;48.782;9.252;2023-03-31T17:09:31;13.60;29.20
439;DHT22;206;48.782;9.252;2023-03-31T17:11:57;13.60;29.20
439;DHT22;206;48.782;9.252;2023-03-31T17:14:22;13.50;29.50
439;DHT22;206;48.782;9.252;2023-03-31T17:16:49;13.50;30.10
439;DHT22;206;48.782;9.252;2023-03-31T17:19:15;13.50;30.90
439;DHT22;206;48.782;9.252;2023-03-31T17:21:41;13.50;30.90
439;DHT22;206;48.782;9.252;2023-03-31T17:24:08;13.40;31.40
439;DHT22;206;48.782;9.252;2023-03-31T17:26:33;13.50;32.20
439;DHT22;206;48.782;9.252;2023-03-31T17:29:00;13.40;33.20
439;DHT22;206;48.782;9.252;2023-03-31T17:31:26;13.40;32.80
439;DHT22;206;48.782;9.252;2023-03-31T17:33:51;13.40;33.40
439;DHT22;206;48.782;9.252;2023-03-31T17:36:17;13.30;33.40
439;DHT22;206;48.782;9.252;2023-03-31T17:38:43;13.20;34.10
439;DHT22;206;48.782;9.252;2023-03-31T17:41:10;13.20;34.40
439;DHT22;206;48.782;9.252;2023-03-31T17:43:37;13.20;35.70
439;DHT22;206;48.782;9.252;2023-03-31T17:46:05;13.10;35.50
439;DHT22;206;48.782;9.252;2023-03-31T17:48:32;13.10;35.90
439;DHT22;206;48.782;9.252;2023-03-31T17:51:05;13.00;35.80
439;DHT22;206;48.782;9.252;2023-03-31T17:53:32;12.90;36.40
439;DHT22;206;48.782;9.252;2023-03-31T17:55:59;12.90;36.40
439;DHT22;206;48.782;9.252;2023-03-31T17:58:25;12.90;36.40
439;DHT22;206;48.782;9.252;2023-03-31T18:00:51;12.90;36.50
439;DHT22;206;48.782;9.252;2023-03-31T18:03:17;12.90;36.70
439;DHT22;206;48.782;9.252;2023-03-31T18:05:44;12.90;36.80
439;DHT22;206;48.782;9.252;2023-03-31T18:08:09;12.90;37.60
439;DHT22;206;48.782;9.252;2023-03-31T18:10:35;12.90;37.40
439;DHT22;206;48.782;9.252;2023-03-31T18:13:02;12.90;38.70
439;DHT22;206;48.782;9.252;2023-03-31T18:15:28;13.00;39.80
439;DHT22;206;48.782;9.252;2023-03-31T18:17:53;13.00;41.50
439;DHT22;206;48.782;9.252;2023-03-31T18:20:19;13.00;44.70
439;DHT22;206;48.782;9.252;2023-03-31T18:22:45;12.90;45.10
439;DHT22;206;48.782;9.252;2023-03-31T18:25:10;12.80;45.10
439;DHT22;206;48.782;9.252;2023-03-31T18:27:37;12.80;46.20
439;DHT22;206;48.782;9.252;2023-03-31T18:30:03;12.70;46.20
439;DHT22;206;48.782;9.252;2023-03-31T18:32:30;12.70;47.80
439;DHT22;206;48.782;9.252;2023-03-31T18:34:56;12.60;47.30
439;DHT22;206;48.782;9.252;2023-03-31T18:37:21;12.70;48.30
439;DHT22;206;48.782;9.252;2023-03-31T18:39:47;12.60;48.40
439;DHT22;206;48.782;9.252;2023-03-31T18:42:13;12.60;47.60
439;DHT22;206;48.782;9.252;2023-03-31T18:44:38;12.50;45.90
439;DHT22;206;48.782;9.252;2023-03-31T18:47:04;12.40;47.20
439;DHT22;206;48.782;9.252;2023-03-31T18:49:30;12.40;48.10
439;DHT22;206;48.782;9.252;2023-03-31T18:51:56;12.40;47.60
439;DHT22;206;48.782;9.252;2023-03-31T18:54:23;12.40;48.40
439;DHT22;206;48.782;9.252;2023-03-31T18:56:49;12.30;47.50
439;DHT22;206;48.782;9.252;2023-03-31T18:59:15;12.30;47.40
439;DHT22;206;48.782;9.252;2023-03-31T19:01:40;12.30;48.10
439;DHT22;206;48.782;9.252;2023-03-31T19:04:07;12.30;48.30
439;DHT22;206;48.782;9.252;2023-03-31T19:06:34;12.20;48.10
439;DHT22;206;48.782;9.252;2023-03-31T19:09:00;12.20;47.30
439;DHT22;206;48.782;9.252;2023-03-31T19:11:26;12.20;46.60
439;DHT22;206;48.782;9.252;2023-03-31T19:13:52;12.10;46.60
439;DHT22;206;48.782;9.252;2023-03-31T19:16:20;12.10;47.60
439;DHT22;206;48.782;9.252;2023-03-31T19:18:46;12.10;47.30
439;DHT22;206;48.782;9.252;2023-03-31T19:21:11;12.10;46.40
439;DHT22;206;48.782;9.252;2023-03-31T19:23:37;12.10;47.50
439;DHT22;206;48.782;9.252;2023-03-31T19:26:04;12.10;47.40
439;DHT22;206;48.782;9.252;2023-03-31T19:28:30;12.20;47.00
439;DHT22;206;48.782;9.252;2023-03-31T19:30:56;12.20;46.10
439;DHT22;206;48.782;9.252;2023-03-31T19:33:23;12.20;47.10
439;DHT22;206;48.782;9.252;2023-03-31T19:35:49;12.10;47.00
439;DHT22;206;48.782;9.252;2023-03-31T19:38:16;12.10;47.30
439;DHT22;206;48.782;9.252;2023-03-31T19:40:42;12.10;47.20
439;DHT22;206;48.782;9.252;2023-03-31T19:43:22;12.00;47.50
439;DHT22;206;48.782;9.252;2023-03-31T19:45:49;11.90;46.90
439;DHT22;206;48.782;9.252;2023-03-31T19:48:17;11.90;48.30
439;DHT22;206;48.782;9.252;2023-03-31T19:50:49;11.90;48.60
439;DHT22;206;48.782;9.252;2023-03-31T19:53:16;11.90;48.10
439;DHT22;206;48.782;9.252;2023-03-31T19:55:41;11.90;47.00
439;DHT22;206;48.782;9.252;2023-03-31T19:58:07;11.90;46.80
439;DHT22;206;48.782;9.252;2023-03-31T20:00:33;11.90;47.50
439;DHT22;206;48.782;9.252;2023-03-31T20:02:59;11.90;47.40
439;DHT22;206;48.782;9.252;2023-03-31T20:05:25;11.90;47.40
439;DHT22;206;48.782;9.252;2023-03-31T20:07:51;11.90;47.00
439;DHT22;206;48.782;9.252;2023-03-31T20:10:17;11.90;46.30
439;DHT22;206;48.782;9.252;2023-03-31T20:12:42;11.90;47.30
439;DHT22;206;48.782;9.252;2023-03-31T20:15:08;12.00;47.80
439;DHT22;206;48.782;9.252;2023-03-31T20:17:33;12.00;46.00